createdAt,value
2019-01-22T00:00:42.811Z,0
2019-01-22T00:01:52.834Z,0
2019-01-22T00:03:02.812Z,0
2019-01-22T00:04:12.551Z,0
2019-01-22T00:05:22.289Z,0
2019-01-22T00:06:32.028Z,0
2019-01-22T00:07:41.785Z,0
2019-01-22T00:08:51.772Z,0
2019-01-22T00:10:01.773Z,0
2019-01-22T00:11:11.790Z,0
2019-01-22T00:12:21.791Z,0
2019-01-22T00:13:31.309Z,0
2019-01-22T00:14:41.290Z,0
2019-01-22T00:15:51.286Z,0
2019-01-22T00:17:01.019Z,0
2019-01-22T00:18:10.784Z,0
2019-01-22T00:19:20.783Z,0
2019-01-22T00:20:30.502Z,0
2019-01-22T00:21:40.509Z,0
2019-01-22T00:22:50.504Z,0
2019-01-22T00:24:00.490Z,0
2019-01-22T00:25:10.226Z,0
2019-01-22T00:26:20.208Z,0
2019-01-22T00:27:30.202Z,0
2019-01-22T00:28:39.936Z,0
2019-01-22T00:29:49.418Z,0
2019-01-22T00:30:58.905Z,0
2019-01-22T00:32:08.884Z,0
2019-01-22T00:33:18.628Z,0
2019-01-22T00:34:28.617Z,0
2019-01-22T00:35:38.603Z,0
2019-01-22T00:36:48.564Z,0
2019-01-22T00:37:59.083Z,0
2019-01-22T00:39:09.833Z,0
2019-01-22T00:40:20.827Z,0
2019-01-22T00:41:31.332Z,0
2019-01-22T00:42:41.487Z,0
2019-01-22T00:43:51.213Z,0
2019-01-22T00:45:01.145Z,0
2019-01-22T00:46:10.878Z,0
2019-01-22T00:47:20.856Z,0
2019-01-22T00:48:30.839Z,0
2019-01-22T00:49:40.801Z,0
2019-01-22T00:50:50.526Z,0
2019-01-22T00:52:00.567Z,0
2019-01-22T00:53:17.085Z,0
2019-01-22T00:54:27.070Z,0
2019-01-22T00:55:37.060Z,0
2019-01-22T00:56:47.025Z,0
2019-01-22T00:57:57.020Z,0
2019-01-22T00:59:07.030Z,0
2019-01-22T01:00:16.767Z,0
2019-01-22T01:01:26.762Z,0
2019-01-22T01:02:36.273Z,0
2019-01-22T01:03:46.269Z,0
2019-01-22T01:04:56.237Z,0
2019-01-22T01:06:06.203Z,0
2019-01-22T01:07:15.927Z,0
2019-01-22T01:08:25.648Z,0
2019-01-22T01:09:35.379Z,0
2019-01-22T01:10:45.120Z,0
2019-01-22T01:11:55.114Z,0
2019-01-22T01:13:04.845Z,0
2019-01-22T01:14:14.831Z,0
2019-01-22T01:15:24.813Z,0
2019-01-22T01:16:34.779Z,0
2019-01-22T01:17:44.547Z,0
2019-01-22T01:18:54.051Z,0
2019-01-22T01:20:03.789Z,0
2019-01-22T01:21:13.798Z,0
2019-01-22T01:22:24.864Z,0
2019-01-22T01:23:35.659Z,0
2019-01-22T01:24:46.095Z,0
2019-01-22T01:25:56.781Z,0
2019-01-22T01:27:07.349Z,0
2019-01-22T01:28:17.204Z,0
2019-01-22T01:29:27.391Z,0
2019-01-22T01:30:37.194Z,0
2019-01-22T01:31:46.913Z,0
2019-01-22T01:32:56.899Z,0
2019-01-22T01:34:06.924Z,0
2019-01-22T01:35:16.958Z,0
2019-01-22T01:36:26.707Z,0
2019-01-22T01:37:36.679Z,0
2019-01-22T01:38:46.415Z,0
2019-01-22T01:39:56.412Z,0
2019-01-22T01:41:06.141Z,0
2019-01-22T01:42:16.113Z,0
2019-01-22T01:43:25.859Z,0
2019-01-22T01:44:35.591Z,0
2019-01-22T01:45:45.581Z,0
2019-01-22T01:46:55.309Z,0
2019-01-22T01:48:05.318Z,0
2019-01-22T01:49:15.309Z,0
2019-01-22T01:50:25.313Z,0
2019-01-22T01:51:35.311Z,0
2019-01-22T01:52:45.299Z,0
2019-01-22T01:53:55.033Z,0
2019-01-22T01:55:04.800Z,0
2019-01-22T01:56:14.793Z,0
2019-01-22T01:57:24.752Z,0
2019-01-22T01:58:34.747Z,0
2019-01-22T01:59:44.745Z,0
2019-01-22T02:00:54.708Z,0
2019-01-22T02:02:04.439Z,0
2019-01-22T02:03:14.198Z,0
2019-01-22T02:04:25.476Z,0
2019-01-22T02:05:35.311Z,0
2019-01-22T02:06:44.810Z,0
2019-01-22T02:07:54.759Z,0
2019-01-22T02:09:04.495Z,0
2019-01-22T02:10:13.967Z,0
2019-01-22T02:11:23.701Z,0
2019-01-22T02:12:33.175Z,0
2019-01-22T02:13:42.897Z,0
2019-01-22T02:14:53.275Z,0
2019-01-22T02:16:03.101Z,0
2019-01-22T02:17:13.841Z,0
2019-01-22T02:18:24.486Z,0
2019-01-22T02:19:34.872Z,0
2019-01-22T02:20:44.761Z,0
2019-01-22T02:21:54.757Z,0
2019-01-22T02:23:04.737Z,0
2019-01-22T02:24:14.748Z,0
2019-01-22T02:25:24.473Z,0
2019-01-22T02:26:34.445Z,0
2019-01-22T02:27:44.233Z,0
2019-01-22T02:28:53.984Z,0
2019-01-22T02:30:03.970Z,0
2019-01-22T02:31:13.960Z,0
2019-01-22T02:32:23.944Z,0
2019-01-22T02:33:33.915Z,0
2019-01-22T02:34:43.911Z,0
2019-01-22T02:35:53.656Z,0
2019-01-22T02:37:03.659Z,0
2019-01-22T02:38:13.635Z,0
2019-01-22T02:39:23.638Z,0
2019-01-22T02:40:33.121Z,0
2019-01-22T02:41:42.612Z,0
2019-01-22T02:42:52.366Z,0
2019-01-22T02:44:01.845Z,0
2019-01-22T02:45:11.887Z,0
2019-01-22T02:46:21.658Z,0
2019-01-22T02:47:31.651Z,0
2019-01-22T02:48:41.375Z,0
2019-01-22T02:49:51.099Z,0
2019-01-22T02:51:01.099Z,0
2019-01-22T02:52:10.859Z,0
2019-01-22T02:53:20.856Z,0
2019-01-22T02:54:30.853Z,0
2019-01-22T02:55:40.839Z,0
2019-01-22T02:56:50.828Z,0
2019-01-22T02:58:00.807Z,0
2019-01-22T02:59:11.152Z,0
2019-01-22T03:00:21.857Z,0
2019-01-22T03:01:32.775Z,0
2019-01-22T03:02:43.360Z,0
2019-01-22T03:03:53.729Z,0
2019-01-22T03:05:03.813Z,0
2019-01-22T03:06:13.833Z,0
2019-01-22T03:07:23.815Z,0
2019-01-22T03:08:33.569Z,0
2019-01-22T03:09:43.595Z,0
2019-01-22T03:10:53.591Z,0
2019-01-22T03:12:03.558Z,0
2019-01-22T03:13:13.522Z,0
2019-01-22T03:14:23.006Z,0
2019-01-22T03:15:33.010Z,0
2019-01-22T03:16:42.765Z,0
2019-01-22T03:17:52.764Z,0
2019-01-22T03:19:02.743Z,0
2019-01-22T03:20:12.470Z,0
2019-01-22T03:21:21.950Z,0
2019-01-22T03:22:31.677Z,0
2019-01-22T03:23:48.657Z,0
2019-01-22T03:24:58.636Z,0
2019-01-22T03:26:08.617Z,0
2019-01-22T03:27:18.348Z,0
2019-01-22T03:28:28.079Z,0
2019-01-22T03:29:38.101Z,0
2019-01-22T03:30:48.110Z,0
2019-01-22T03:31:58.142Z,0
2019-01-22T03:33:08.154Z,0
2019-01-22T03:34:18.125Z,0
2019-01-22T03:35:27.831Z,0
2019-01-22T03:36:37.779Z,0
2019-01-22T03:37:47.752Z,0
2019-01-22T03:38:58.181Z,0
2019-01-22T03:40:09.011Z,0
2019-01-22T03:41:19.230Z,0
2019-01-22T03:42:29.660Z,0
2019-01-22T03:43:39.762Z,0
2019-01-22T03:44:49.236Z,0
2019-01-22T03:45:59.192Z,0
2019-01-22T03:47:09.134Z,0
2019-01-22T03:48:18.838Z,0
2019-01-22T03:49:28.566Z,0
2019-01-22T03:50:38.303Z,0
2019-01-22T03:51:48.262Z,0
2019-01-22T03:52:57.980Z,0
2019-01-22T03:54:07.924Z,0
2019-01-22T03:55:17.404Z,0
2019-01-22T03:56:27.367Z,0
2019-01-22T03:57:37.079Z,0
2019-01-22T03:58:47.032Z,0
2019-01-22T03:59:56.763Z,0
2019-01-22T04:01:06.481Z,0
2019-01-22T04:02:16.477Z,0
2019-01-22T04:03:26.430Z,0
2019-01-22T04:04:35.614Z,0
2019-01-22T04:05:45.334Z,0
2019-01-22T04:06:55.300Z,0
2019-01-22T04:08:05.267Z,0
2019-01-22T04:09:15.221Z,0
2019-01-22T04:10:24.925Z,0
2019-01-22T04:11:34.663Z,0
2019-01-22T04:12:44.613Z,0
2019-01-22T04:13:54.575Z,0
2019-01-22T04:15:04.330Z,0
2019-01-22T04:16:14.285Z,0
2019-01-22T04:17:24.260Z,0
2019-01-22T04:18:34.213Z,0
2019-01-22T04:19:44.856Z,0
2019-01-22T04:20:55.805Z,0
2019-01-22T04:22:06.754Z,0
2019-01-22T04:23:17.453Z,0
2019-01-22T04:24:27.691Z,0
2019-01-22T04:25:37.645Z,0
2019-01-22T04:26:47.334Z,0
2019-01-22T04:27:57.282Z,0
2019-01-22T04:29:06.997Z,0
2019-01-22T04:30:16.698Z,0
2019-01-22T04:31:26.158Z,0
2019-01-22T04:32:36.129Z,0
2019-01-22T04:33:45.855Z,0
2019-01-22T04:34:55.309Z,0
2019-01-22T04:36:05.270Z,0
2019-01-22T04:37:15.242Z,0
2019-01-22T04:38:25.197Z,0
2019-01-22T04:39:35.160Z,0
2019-01-22T04:40:45.103Z,0
2019-01-22T04:41:55.082Z,0
2019-01-22T04:43:05.050Z,0
2019-01-22T04:44:15.017Z,0
2019-01-22T04:45:24.744Z,0
2019-01-22T04:46:34.768Z,0
2019-01-22T04:47:44.759Z,0
2019-01-22T04:48:54.220Z,0
2019-01-22T04:50:04.162Z,0
2019-01-22T04:51:13.881Z,0
2019-01-22T04:52:23.867Z,0
2019-01-22T04:53:33.817Z,0
2019-01-22T04:54:43.774Z,0
2019-01-22T04:55:53.647Z,0
2019-01-22T04:57:03.107Z,0
2019-01-22T04:58:13.332Z,0
2019-01-22T04:59:23.589Z,0
2019-01-22T05:00:34.732Z,0
2019-01-22T05:01:45.529Z,0
2019-01-22T05:02:55.672Z,0
2019-01-22T05:04:05.843Z,0
2019-01-22T05:05:15.558Z,0
2019-01-22T05:06:25.514Z,0
2019-01-22T05:07:35.504Z,0
2019-01-22T05:08:45.453Z,0
2019-01-22T05:09:55.168Z,0
2019-01-22T05:11:05.129Z,0
2019-01-22T05:12:15.094Z,0
2019-01-22T05:13:24.556Z,0
2019-01-22T05:14:34.525Z,0
2019-01-22T05:15:44.224Z,0
2019-01-22T05:16:53.932Z,0
2019-01-22T05:18:03.636Z,0
2019-01-22T05:19:13.346Z,0
2019-01-22T05:20:23.060Z,0
2019-01-22T05:21:32.518Z,0
2019-01-22T05:22:42.628Z,0
2019-01-22T05:23:52.360Z,0
2019-01-22T05:25:02.323Z,0
2019-01-22T05:26:12.287Z,0
2019-01-22T05:27:22.497Z,0
2019-01-22T05:28:32.233Z,0
2019-01-22T05:29:41.945Z,0
2019-01-22T05:30:51.912Z,0
2019-01-22T05:32:01.887Z,0
2019-01-22T05:33:11.586Z,0
2019-01-22T05:34:21.550Z,0
2019-01-22T05:35:31.271Z,0
2019-01-22T05:36:41.290Z,0
2019-01-22T05:37:50.664Z,0
2019-01-22T05:39:01.044Z,0
2019-01-22T05:40:11.770Z,0
2019-01-22T05:41:22.385Z,0
2019-01-22T05:42:33.168Z,0
2019-01-22T05:43:43.316Z,0
2019-01-22T05:44:53.659Z,0
2019-01-22T05:46:03.826Z,0
2019-01-22T05:47:13.780Z,0
2019-01-22T05:48:23.500Z,0
2019-01-22T05:49:33.467Z,0
2019-01-22T05:50:43.177Z,0
2019-01-22T05:51:52.858Z,0
2019-01-22T05:53:02.802Z,0
2019-01-22T05:54:12.736Z,0
2019-01-22T05:55:22.455Z,0
2019-01-22T05:56:32.436Z,0
2019-01-22T05:57:42.366Z,0
2019-01-22T05:58:52.051Z,0
2019-01-22T06:00:01.493Z,0
2019-01-22T06:01:11.193Z,0
2019-01-22T06:02:21.114Z,0
2019-01-22T06:03:31.029Z,0
2019-01-22T06:04:40.957Z,0
2019-01-22T06:05:50.653Z,0
2019-01-22T06:07:00.371Z,0
2019-01-22T06:08:10.056Z,0
2019-01-22T06:09:19.745Z,0
2019-01-22T06:10:29.424Z,0
2019-01-22T06:11:39.353Z,0
2019-01-22T06:12:48.801Z,0
2019-01-22T06:13:58.515Z,0
2019-01-22T06:15:08.210Z,0
2019-01-22T06:16:17.642Z,0
2019-01-22T06:17:27.326Z,0
2019-01-22T06:18:37.024Z,0
2019-01-22T06:19:46.966Z,0
2019-01-22T06:20:56.929Z,0
2019-01-22T06:22:06.887Z,0
2019-01-22T06:23:16.896Z,0
2019-01-22T06:24:33.040Z,0
2019-01-22T06:25:49.488Z,0
2019-01-22T06:26:59.379Z,0
2019-01-22T06:28:08.810Z,0
2019-01-22T06:29:18.498Z,0
2019-01-22T06:30:28.176Z,0
2019-01-22T06:31:38.103Z,0
2019-01-22T06:32:47.786Z,0
2019-01-22T06:33:57.738Z,0
2019-01-22T06:35:07.711Z,0
2019-01-22T06:36:17.690Z,0
2019-01-22T06:37:27.636Z,0
2019-01-22T06:38:37.579Z,0
2019-01-22T06:39:47.317Z,0
2019-01-22T06:40:57.326Z,0
2019-01-22T06:42:07.253Z,0
2019-01-22T06:43:17.220Z,0
2019-01-22T06:44:26.931Z,0
2019-01-22T06:45:36.368Z,0
2019-01-22T06:46:46.070Z,0
2019-01-22T06:47:55.757Z,0
2019-01-22T06:49:05.714Z,0
2019-01-22T06:50:15.882Z,0
2019-01-22T06:51:25.821Z,0
2019-01-22T06:52:35.500Z,0
2019-01-22T06:53:45.431Z,5
2019-01-22T06:54:55.126Z,5
2019-01-22T06:56:05.080Z,5
2019-01-22T06:57:15.009Z,5
2019-01-22T06:58:24.465Z,5
2019-01-22T06:59:34.419Z,5
2019-01-22T07:00:44.367Z,10
2019-01-22T07:01:54.304Z,10
2019-01-22T07:03:04.226Z,10
2019-01-22T07:04:13.925Z,10
2019-01-22T07:05:23.869Z,15
2019-01-22T07:06:33.815Z,15
2019-01-22T07:07:43.253Z,15
2019-01-22T07:08:53.184Z,15
2019-01-22T07:10:07.388Z,20
2019-01-22T07:11:17.078Z,20
2019-01-22T07:12:27.652Z,25
2019-01-22T07:13:37.391Z,25
2019-01-22T07:14:47.331Z,25
2019-01-22T07:15:57.284Z,30
2019-01-22T07:17:07.227Z,30
2019-01-22T07:18:16.934Z,30
2019-01-22T07:19:26.630Z,35
2019-01-22T07:20:36.575Z,35
2019-01-22T07:21:46.525Z,35
2019-01-22T07:22:56.458Z,40
2019-01-22T07:24:06.411Z,40
2019-01-22T07:25:16.101Z,40
2019-01-22T07:26:26.059Z,45
2019-01-22T07:27:35.761Z,45
2019-01-22T07:28:45.443Z,45
2019-01-22T07:29:55.394Z,50
2019-01-22T07:31:08.101Z,50
2019-01-22T07:32:17.800Z,55
2019-01-22T07:33:27.480Z,55
2019-01-22T07:34:37.417Z,60
2019-01-22T07:35:47.103Z,60
2019-01-22T07:36:57.035Z,65
2019-01-22T07:38:06.981Z,65
2019-01-22T07:39:16.673Z,65
2019-01-22T07:40:26.834Z,65
2019-01-22T07:41:36.782Z,70
2019-01-22T07:42:46.465Z,70
2019-01-22T07:43:56.410Z,75
2019-01-22T07:45:06.350Z,80
2019-01-22T07:46:16.039Z,80
2019-01-22T07:47:25.747Z,80
2019-01-22T07:48:35.437Z,85
2019-01-22T07:49:44.917Z,85
2019-01-22T07:50:54.345Z,90
2019-01-22T07:52:04.311Z,90
2019-01-22T07:53:14.059Z,95
2019-01-22T07:54:23.739Z,95
2019-01-22T07:55:33.735Z,100
2019-01-22T07:56:43.180Z,105
2019-01-22T07:57:52.616Z,105
2019-01-22T07:59:02.677Z,115
2019-01-22T08:00:12.748Z,110
2019-01-22T08:01:22.491Z,110
2019-01-22T08:02:32.453Z,115
2019-01-22T08:03:42.153Z,120
2019-01-22T08:04:51.849Z,125
2019-01-22T08:06:01.292Z,125
2019-01-22T08:07:11.241Z,130
2019-01-22T08:08:20.951Z,130
2019-01-22T08:09:30.628Z,135
2019-01-22T08:10:40.322Z,135
2019-01-22T08:11:50.027Z,140
2019-01-22T08:12:59.499Z,140
2019-01-22T08:14:09.455Z,145
2019-01-22T08:15:19.435Z,150
2019-01-22T08:16:29.413Z,155
2019-01-22T08:17:39.421Z,155
2019-01-22T08:18:49.382Z,160
2019-01-22T08:19:59.095Z,160
2019-01-22T08:21:09.036Z,165
2019-01-22T08:22:18.769Z,170
2019-01-22T08:23:28.774Z,175
2019-01-22T08:24:38.479Z,180
2019-01-22T08:25:48.194Z,190
2019-01-22T08:26:58.142Z,190
2019-01-22T08:28:07.585Z,195
2019-01-22T08:29:17.513Z,200
2019-01-22T08:30:27.186Z,205
2019-01-22T08:31:36.902Z,210
2019-01-22T08:32:46.683Z,210
2019-01-22T08:33:56.635Z,215
2019-01-22T08:35:06.595Z,215
2019-01-22T08:36:16.284Z,215
2019-01-22T08:37:26.257Z,220
2019-01-22T08:38:35.703Z,220
2019-01-22T08:39:45.426Z,225
2019-01-22T08:40:56.041Z,225
2019-01-22T08:42:05.735Z,235
2019-01-22T08:43:15.694Z,235
2019-01-22T08:44:27.937Z,240
2019-01-22T08:45:37.541Z,245
2019-01-22T08:46:47.248Z,245
2019-01-22T08:47:57.513Z,250
2019-01-22T08:49:07.244Z,250
2019-01-22T08:50:16.986Z,260
2019-01-22T08:51:26.770Z,270
2019-01-22T08:52:36.708Z,275
2019-01-22T08:53:46.419Z,285
2019-01-22T08:54:55.885Z,290
2019-01-22T08:56:05.865Z,295
2019-01-22T08:57:15.651Z,305
2019-01-22T08:58:25.362Z,320
2019-01-22T08:59:35.345Z,335
2019-01-22T09:00:45.306Z,455
2019-01-22T09:01:55.276Z,575
2019-01-22T09:03:04.991Z,555
2019-01-22T09:04:14.703Z,595
2019-01-22T09:05:24.153Z,650
2019-01-22T09:06:34.115Z,680
2019-01-22T09:07:43.841Z,710
2019-01-22T09:08:53.793Z,710
2019-01-22T09:10:03.492Z,720
2019-01-22T09:11:13.284Z,720
2019-01-22T09:12:23.257Z,755
2019-01-22T09:13:33.218Z,775
2019-01-22T09:14:43.166Z,760
2019-01-22T09:15:53.180Z,740
2019-01-22T09:17:04.749Z,760
2019-01-22T09:18:14.706Z,735
2019-01-22T09:19:24.677Z,715
2019-01-22T09:20:34.674Z,715
2019-01-22T09:21:44.412Z,725
2019-01-22T09:22:54.412Z,705
2019-01-22T09:24:04.120Z,720
2019-01-22T09:25:19.592Z,705
2019-01-22T09:26:29.294Z,720
2019-01-22T09:27:39.260Z,710
2019-01-22T09:28:48.981Z,730
2019-01-22T09:29:58.941Z,755
2019-01-22T09:31:08.927Z,760
2019-01-22T09:32:18.871Z,785
2019-01-22T09:33:28.827Z,780
2019-01-22T09:34:38.811Z,775
2019-01-22T09:35:48.767Z,815
2019-01-22T09:36:58.796Z,845
2019-01-22T09:38:08.277Z,825
2019-01-22T09:39:18.481Z,835
2019-01-22T09:40:31.361Z,875
2019-01-22T09:41:41.293Z,860
2019-01-22T09:42:50.496Z,860
2019-01-22T09:44:00.464Z,885
2019-01-22T09:45:10.829Z,880
2019-01-22T09:46:20.780Z,840
2019-01-22T09:47:30.934Z,860
2019-01-22T09:48:40.617Z,955
2019-01-22T09:49:50.572Z,945
2019-01-22T09:51:00.289Z,890
2019-01-22T09:52:09.986Z,885
2019-01-22T09:53:19.451Z,950
2019-01-22T09:54:29.462Z,950
2019-01-22T09:55:40.063Z,965
2019-01-22T09:56:49.771Z,945
2019-01-22T09:57:59.719Z,935
2019-01-22T09:59:09.738Z,905
2019-01-22T10:00:19.453Z,895
2019-01-22T10:01:29.403Z,905
2019-01-22T10:02:39.353Z,950
2019-01-22T10:03:49.305Z,970
2019-01-22T10:04:59.007Z,955
2019-01-22T10:06:08.498Z,1010
2019-01-22T10:07:18.811Z,1070
2019-01-22T10:08:28.779Z,1035
2019-01-22T10:09:38.780Z,1075
2019-01-22T10:10:48.239Z,1105
2019-01-22T10:11:58.363Z,1115
2019-01-22T10:13:08.446Z,1100
2019-01-22T10:14:18.439Z,1115
2019-01-22T10:15:28.395Z,1145
2019-01-22T10:16:38.376Z,1130
2019-01-22T10:17:48.086Z,1130
2019-01-22T10:18:58.026Z,1135
2019-01-22T10:20:07.990Z,1150
2019-01-22T10:21:17.927Z,1160
2019-01-22T10:22:27.865Z,1195
2019-01-22T10:23:37.798Z,1195
2019-01-22T10:24:47.509Z,1205
2019-01-22T10:25:57.470Z,1215
2019-01-22T10:27:07.410Z,1235
2019-01-22T10:28:17.360Z,1255
2019-01-22T10:29:27.310Z,1260
2019-01-22T10:30:37.000Z,1250
2019-01-22T10:31:50.335Z,1275
2019-01-22T10:33:00.500Z,1280
2019-01-22T10:34:10.457Z,1290
2019-01-22T10:35:20.152Z,1330
2019-01-22T10:36:29.848Z,1340
2019-01-22T10:37:39.849Z,1345
2019-01-22T10:38:49.053Z,1350
2019-01-22T10:39:59.035Z,1310
2019-01-22T10:41:08.788Z,1315
2019-01-22T10:42:18.798Z,1375
2019-01-22T10:43:28.530Z,1310
2019-01-22T10:44:38.503Z,1355
2019-01-22T10:45:48.189Z,1350
2019-01-22T10:46:57.895Z,1350
2019-01-22T10:48:07.625Z,1385
2019-01-22T10:49:17.596Z,1360
2019-01-22T10:50:27.351Z,1415
2019-01-22T10:51:37.319Z,1375
2019-01-22T10:52:47.276Z,1375
2019-01-22T10:53:56.705Z,1420
2019-01-22T10:55:06.455Z,1465
2019-01-22T10:56:16.155Z,1485
2019-01-22T10:57:25.101Z,1425
2019-01-22T10:58:35.080Z,1435
2019-01-22T10:59:44.551Z,1465
2019-01-22T11:00:54.480Z,1465
2019-01-22T11:02:04.674Z,1445
2019-01-22T11:03:16.100Z,1435
2019-01-22T11:04:26.048Z,1485
2019-01-22T11:05:36.030Z,1530
2019-01-22T11:06:46.183Z,1500
2019-01-22T11:07:55.880Z,1490
2019-01-22T11:09:05.840Z,1525
2019-01-22T11:10:15.544Z,1525
2019-01-22T11:11:25.240Z,1570
2019-01-22T11:12:35.210Z,1575
2019-01-22T11:13:45.161Z,1535
2019-01-22T11:14:54.939Z,1580
2019-01-22T11:16:04.894Z,1540
2019-01-22T11:17:14.606Z,1495
2019-01-22T11:18:24.576Z,1505
2019-01-22T11:19:37.486Z,1565
2019-01-22T11:20:47.473Z,1555
2019-01-22T11:21:57.463Z,1550
2019-01-22T11:23:07.161Z,1530
2019-01-22T11:24:16.400Z,1505
2019-01-22T11:25:25.617Z,1585
2019-01-22T11:26:35.575Z,1585
2019-01-22T11:27:45.294Z,1660
2019-01-22T11:28:55.265Z,1620
2019-01-22T11:30:04.226Z,1585
2019-01-22T11:31:14.184Z,1635
2019-01-22T11:32:24.142Z,1645
2019-01-22T11:33:38.153Z,1660
2019-01-22T11:34:47.890Z,1650
2019-01-22T11:35:57.915Z,1655
2019-01-22T11:37:07.640Z,1680
2019-01-22T11:38:22.168Z,1680
2019-01-22T11:39:32.153Z,1700
2019-01-22T11:40:41.909Z,1680
2019-01-22T11:41:51.886Z,1625
2019-01-22T11:43:01.628Z,1670
2019-01-22T11:44:11.342Z,1595
2019-01-22T11:45:21.353Z,1660
2019-01-22T11:46:30.868Z,1665
2019-01-22T11:47:40.866Z,1600
2019-01-22T11:48:50.878Z,1640
2019-01-22T11:50:00.878Z,1730
2019-01-22T11:51:10.574Z,1780
2019-01-22T11:52:20.854Z,1805
2019-01-22T11:53:30.562Z,1780
2019-01-22T11:54:40.280Z,1720
2019-01-22T11:55:55.076Z,1675
2019-01-22T11:57:05.030Z,1650
2019-01-22T11:58:15.056Z,1670
2019-01-22T11:59:25.011Z,1695
2019-01-22T12:00:35.204Z,1680
2019-01-22T12:01:44.907Z,1620
2019-01-22T12:02:54.370Z,1660
2019-01-22T12:04:04.346Z,1715
2019-01-22T12:05:14.059Z,1705
2019-01-22T12:06:23.515Z,1675
2019-01-22T12:07:33.471Z,1675
2019-01-22T12:08:42.915Z,1695
2019-01-22T12:09:52.851Z,1690
2019-01-22T12:11:02.862Z,1705
2019-01-22T12:12:12.555Z,1750
2019-01-22T12:13:22.248Z,1730
2019-01-22T12:14:32.199Z,1700
2019-01-22T12:15:42.170Z,1740
2019-01-22T12:16:52.138Z,1770
2019-01-22T12:18:01.596Z,1680
2019-01-22T12:19:11.543Z,1690
2019-01-22T12:20:21.236Z,1735
2019-01-22T12:21:31.186Z,1700
2019-01-22T12:22:41.144Z,1710
2019-01-22T12:23:50.864Z,1700
2019-01-22T12:25:00.596Z,1680
2019-01-22T12:26:10.069Z,1710
2019-01-22T12:27:19.521Z,1695
2019-01-22T12:28:29.226Z,1680
2019-01-22T12:29:39.190Z,1640
2019-01-22T12:30:49.138Z,1630
2019-01-22T12:31:58.840Z,1655
2019-01-22T12:33:08.544Z,1625
2019-01-22T12:34:18.253Z,1670
2019-01-22T12:35:27.942Z,1675
2019-01-22T12:36:37.659Z,1710
2019-01-22T12:37:47.596Z,1760
2019-01-22T12:38:57.695Z,1720
2019-01-22T12:40:07.392Z,1670
2019-01-22T12:41:17.349Z,1655
2019-01-22T12:42:27.300Z,1675
2019-01-22T12:43:37.272Z,1645
2019-01-22T12:44:47.221Z,1605
2019-01-22T12:45:57.207Z,1640
2019-01-22T12:47:07.189Z,1655
2019-01-22T12:48:16.950Z,1630
2019-01-22T12:49:26.917Z,1570
2019-01-22T12:50:36.918Z,1545
2019-01-22T12:51:46.920Z,1545
2019-01-22T12:52:56.387Z,1560
2019-01-22T12:54:06.349Z,1565
2019-01-22T12:55:16.342Z,1565
2019-01-22T12:56:26.292Z,1595
2019-01-22T12:57:36.004Z,1610
2019-01-22T12:58:45.450Z,1630
2019-01-22T12:59:54.898Z,1630
2019-01-22T13:01:04.868Z,1600
2019-01-22T13:02:14.334Z,1580
2019-01-22T13:03:24.294Z,1550
2019-01-22T13:04:34.263Z,1560
2019-01-22T13:05:43.981Z,1595
2019-01-22T13:06:53.472Z,1560
2019-01-22T13:08:03.480Z,1530
2019-01-22T13:09:13.202Z,1565
2019-01-22T13:10:23.152Z,1570
2019-01-22T13:11:33.140Z,1525
2019-01-22T13:12:42.854Z,1555
2019-01-22T13:13:52.883Z,1590
2019-01-22T13:15:02.582Z,1550
2019-01-22T13:16:12.271Z,1570
2019-01-22T13:17:21.985Z,1170
2019-01-22T13:18:33.109Z,1170
2019-01-22T13:19:43.103Z,1455
2019-01-22T13:20:52.611Z,1450
2019-01-22T13:22:02.323Z,1435
2019-01-22T13:23:12.014Z,1430
2019-01-22T13:24:21.991Z,1450
2019-01-22T13:25:32.013Z,1440
2019-01-22T13:26:41.969Z,1420
2019-01-22T13:27:51.752Z,1440
2019-01-22T13:29:01.773Z,1480
2019-01-22T13:30:11.235Z,1400
2019-01-22T13:31:20.983Z,1385
2019-01-22T13:32:30.965Z,1400
2019-01-22T13:33:40.697Z,1405
2019-01-22T13:34:49.930Z,1395
2019-01-22T13:35:59.895Z,1360
2019-01-22T13:37:09.841Z,1350
2019-01-22T13:38:19.563Z,1355
2019-01-22T13:39:29.512Z,1410
2019-01-22T13:40:39.219Z,1415
2019-01-22T13:41:49.176Z,1340
2019-01-22T13:42:58.885Z,1335
2019-01-22T13:44:08.591Z,1330
2019-01-22T13:45:18.314Z,1305
2019-01-22T13:46:27.838Z,1305
2019-01-22T13:47:37.539Z,1270
2019-01-22T13:48:47.499Z,1260
2019-01-22T13:49:57.431Z,1285
2019-01-22T13:51:07.133Z,1295
2019-01-22T13:52:17.103Z,1290
2019-01-22T13:53:26.820Z,1270
2019-01-22T13:54:36.762Z,1260
2019-01-22T13:55:46.736Z,1190
2019-01-22T13:56:56.689Z,1140
2019-01-22T13:58:06.681Z,1115
2019-01-22T13:59:16.145Z,1130
2019-01-22T14:00:26.120Z,1165
2019-01-22T14:01:36.114Z,1105
2019-01-22T14:02:46.090Z,1070
2019-01-22T14:03:56.043Z,1075
2019-01-22T14:05:05.762Z,1060
2019-01-22T14:06:15.473Z,1035
2019-01-22T14:07:25.447Z,1050
2019-01-22T14:08:35.169Z,1050
2019-01-22T14:09:45.150Z,1020
2019-01-22T14:10:55.142Z,1000
2019-01-22T14:12:04.905Z,960
2019-01-22T14:13:14.884Z,900
2019-01-22T14:14:24.365Z,850
2019-01-22T14:15:34.067Z,845
2019-01-22T14:16:44.056Z,880
2019-01-22T14:17:53.817Z,900
2019-01-22T14:19:03.937Z,895
2019-01-22T14:20:13.916Z,860
2019-01-22T14:21:23.895Z,840
2019-01-22T14:22:33.869Z,820
2019-01-22T14:23:43.836Z,805
2019-01-22T14:24:53.606Z,785
2019-01-22T14:26:03.607Z,765
2019-01-22T14:27:13.357Z,765
2019-01-22T14:28:23.370Z,755
2019-01-22T14:29:33.112Z,725
2019-01-22T14:30:42.829Z,715
2019-01-22T14:31:52.548Z,690
2019-01-22T14:33:02.267Z,670
2019-01-22T14:34:11.756Z,650
2019-01-22T14:35:21.473Z,590
2019-01-22T14:36:30.962Z,375
2019-01-22T14:37:40.955Z,405
2019-01-22T14:38:50.677Z,545
2019-01-22T14:40:00.451Z,540
2019-01-22T14:41:10.486Z,530
2019-01-22T14:42:20.478Z,505
2019-01-22T14:43:30.187Z,485
2019-01-22T14:44:40.159Z,455
2019-01-22T14:45:50.130Z,430
2019-01-22T14:46:59.631Z,415
2019-01-22T14:48:09.394Z,395
2019-01-22T14:49:19.150Z,360
2019-01-22T14:50:29.141Z,310
2019-01-22T14:51:38.847Z,300
2019-01-22T14:52:48.309Z,280
2019-01-22T14:53:58.332Z,260
2019-01-22T14:55:08.574Z,260
2019-01-22T14:56:18.419Z,225
2019-01-22T14:57:30.881Z,175
2019-01-22T14:58:40.867Z,135
2019-01-22T14:59:50.833Z,115
2019-01-22T15:01:00.812Z,110
2019-01-22T15:02:10.765Z,105
2019-01-22T15:03:20.694Z,95
2019-01-22T15:04:30.421Z,90
2019-01-22T15:05:39.878Z,80
2019-01-22T15:06:49.835Z,80
2019-01-22T15:07:59.297Z,75
2019-01-22T15:09:08.991Z,75
2019-01-22T15:10:18.694Z,70
2019-01-22T15:11:28.665Z,70
2019-01-22T15:12:38.631Z,65
2019-01-22T15:13:48.354Z,65
2019-01-22T15:14:58.062Z,60
2019-01-22T15:16:08.207Z,60
2019-01-22T15:17:17.655Z,55
2019-01-22T15:18:27.370Z,55
2019-01-22T15:19:37.310Z,50
2019-01-22T15:20:47.273Z,45
2019-01-22T15:21:57.243Z,40
2019-01-22T15:23:07.186Z,40
2019-01-22T15:24:16.898Z,35
2019-01-22T15:25:26.607Z,35
2019-01-22T15:26:41.713Z,30
2019-01-22T15:27:51.659Z,30
2019-01-22T15:29:01.369Z,25
2019-01-22T15:30:11.340Z,25
2019-01-22T15:31:21.289Z,20
2019-01-22T15:32:30.991Z,20
2019-01-22T15:33:40.699Z,20
2019-01-22T15:34:50.651Z,15
2019-01-22T15:36:00.618Z,15
2019-01-22T15:37:10.566Z,15
2019-01-22T15:38:20.020Z,10
2019-01-22T15:39:29.969Z,10
2019-01-22T15:40:39.910Z,10
2019-01-22T15:41:49.895Z,10
2019-01-22T15:42:59.588Z,5
2019-01-22T15:44:09.528Z,5
2019-01-22T15:45:19.496Z,5
2019-01-22T15:46:29.467Z,5
2019-01-22T15:47:39.402Z,5
2019-01-22T15:48:49.379Z,0
2019-01-22T15:49:58.558Z,0
2019-01-22T15:51:08.277Z,0
2019-01-22T15:52:18.228Z,0
2019-01-22T15:53:27.929Z,0
2019-01-22T15:54:37.882Z,0
2019-01-22T15:55:52.930Z,0
2019-01-22T15:57:02.897Z,0
2019-01-22T15:58:12.838Z,0
2019-01-22T15:59:22.787Z,0
2019-01-22T16:00:32.724Z,0
2019-01-22T16:01:42.671Z,0
2019-01-22T16:02:52.610Z,0
2019-01-22T16:04:02.287Z,0
2019-01-22T16:05:11.971Z,0
2019-01-22T16:06:21.651Z,0
2019-01-22T16:07:31.585Z,0
2019-01-22T16:08:41.550Z,0
2019-01-22T16:09:51.502Z,0
2019-01-22T16:11:01.206Z,0
2019-01-22T16:12:11.152Z,0
2019-01-22T16:13:20.854Z,0
2019-01-22T16:14:30.814Z,0
2019-01-22T16:15:40.516Z,0
2019-01-22T16:16:50.465Z,0
2019-01-22T16:17:59.906Z,0
2019-01-22T16:19:09.866Z,0
2019-01-22T16:20:19.313Z,0
2019-01-22T16:21:29.017Z,0
2019-01-22T16:22:38.732Z,0
2019-01-22T16:23:48.664Z,0
2019-01-22T16:24:58.358Z,0
2019-01-22T16:26:08.060Z,0
2019-01-22T16:27:17.764Z,0
2019-01-22T16:28:27.453Z,0
2019-01-22T16:29:37.160Z,0
2019-01-22T16:30:46.870Z,0